Aidamar — ICSJ — position and weather

sailwx.info

Track history (hours):
 
Tides and Currents Weather Stations Pressure Air Temp Water Temp Dewpoint Dewpoint Depression Visibility Wind Speed Wind Dir Waves Ship Positions

Aidamar

Last reported at 2017-Feb-24 21:19 UTC. Time now 2017-Feb-24 21:41 UTC.
Position N 09°22' W 079°54'.

Length 253 m; draft 7.3 m.

Type: Passenger vessel. MMSI: 247312900.

Date/timePositionNaut miles runAvg speedWind from/ knotsBaromVisibWave heightAir tempDewpointWater temp
2017-Feb-24 21:19N 09°22' W 079°54'0 0.0
2017-Feb-24 20:31N 09°22' W 079°54'0 0.0
2017-Feb-24 18:19N 09°22' W 079°54'0 0.0
2017-Feb-24 17:16N 09°22' W 079°54'0 0.0
2017-Feb-24 16:31N 09°22' W 079°54'0 0.0
2017-Feb-24 15:28N 09°22' W 079°54'0 0.0
2017-Feb-24 14:31N 09°22' W 079°54'2 2.1
2017-Feb-24 13:33N 09°24' W 079°54'  
2017-Feb-20 03:23N 16°56' W 062°24'7 7.4
2017-Feb-20 02:29N 17°02' W 062°21'7 7.6
2017-Feb-20 01:34N 17°05' W 062°14'8 7.7
2017-Feb-20 00:33N 17°07' W 062°07'7 7.3
2017-Feb-19 23:33N 17°09' W 061°59'8 7.8
2017-Feb-19 22:34N 17°07' W 061°51'0 0.3
2017-Feb-19 21:31N 17°07' W 061°51'0 0.0
2017-Feb-19 20:31N 17°07' W 061°51'0 0.0
2017-Feb-19 19:31N 17°07' W 061°51'0 0.0
2017-Feb-19 18:31N 17°07' W 061°51'0 0.0
2017-Feb-19 17:31N 17°07' W 061°51'0 0.0
2017-Feb-19 16:28N 17°07' W 061°51'0 0.0
2017-Feb-19 15:31N 17°07' W 061°51'0 0.0
2017-Feb-19 14:28N 17°07' W 061°51'0 0.0
2017-Feb-19 13:31N 17°07' W 061°51'0 0.0
2017-Feb-19 12:31N 17°07' W 061°51'0 0.0
2017-Feb-19 11:34N 17°07' W 061°51'5 4.5
2017-Feb-19 10:33N 17°09' W 061°55'7 7.1
2017-Feb-19 09:33N 17°14' W 062°01'7 6.9
2017-Feb-19 08:33N 17°18' W 062°07'7 6.7
2017-Feb-19 07:33N 17°22' W 062°12'7 6.6
2017-Feb-19 06:33N 17°26' W 062°18'7 6.5
2017-Feb-19 05:33N 17°29' W 062°24'37 7.0
2017-Feb-19 00:17N 17°52' W 062°54'5 7.3
2017-Feb-18 23:34N 17°55' W 062°59'13 1.1
2017-Feb-18 11:22N 18°01' W 063°11'7 8.3
2017-Feb-18 10:33N 18°03' W 063°18'9 7.7
2017-Feb-18 09:27N 18°05' W 063°27'8 7.6
2017-Feb-18 08:25N 18°06' W 063°35'55 7.6
2017-Feb-18 01:06N 18°20' W 064°31'610.0
2017-Feb-18 00:29N 18°25' W 064°36'1 0.2
2017-Feb-17 20:28N 18°25' W 064°36'0 0.0
2017-Feb-17 12:15N 18°25' W 064°36'710.0
2017-Feb-17 11:33N 18°26' W 064°29'1414.2
2017-Feb-17 10:32N 18°34' W 064°42'1515.6
2017-Feb-17 09:33N 18°37' W 064°58'  
Track history (hours):
 
Tides and Currents Weather Stations Pressure Air Temp Water Temp Dewpoint Dewpoint Depression Visibility Wind Speed Wind Dir Waves Ship Positions

Aidamar

Last reported at 2017-Feb-24 21:19 UTC. Time now 2017-Feb-24 21:41 UTC.
Position N 09°22' W 079°54'.

Length 253 m; draft 7.3 m.

Type: Passenger vessel. MMSI: 247312900.

Date/timePositionNaut miles runAvg speedWind from/ knotsBaromVisibWave heightAir tempDewpointWater temp
2017-Feb-24 21:19N 09°22' W 079°54'0 0.0
2017-Feb-24 20:31N 09°22' W 079°54'0 0.0
2017-Feb-24 18:19N 09°22' W 079°54'0 0.0
2017-Feb-24 17:16N 09°22' W 079°54'0 0.0
2017-Feb-24 16:31N 09°22' W 079°54'0 0.0
2017-Feb-24 15:28N 09°22' W 079°54'0 0.0
2017-Feb-24 14:31N 09°22' W 079°54'2 2.1
2017-Feb-24 13:33N 09°24' W 079°54'  
2017-Feb-20 03:23N 16°56' W 062°24'7 7.4
2017-Feb-20 02:29N 17°02' W 062°21'7 7.6
2017-Feb-20 01:34N 17°05' W 062°14'8 7.7
2017-Feb-20 00:33N 17°07' W 062°07'7 7.3
2017-Feb-19 23:33N 17°09' W 061°59'8 7.8
2017-Feb-19 22:34N 17°07' W 061°51'0 0.3
2017-Feb-19 21:31N 17°07' W 061°51'0 0.0
2017-Feb-19 20:31N 17°07' W 061°51'0 0.0
2017-Feb-19 19:31N 17°07' W 061°51'0 0.0
2017-Feb-19 18:31N 17°07' W 061°51'0 0.0
2017-Feb-19 17:31N 17°07' W 061°51'0 0.0
2017-Feb-19 16:28N 17°07' W 061°51'0 0.0
2017-Feb-19 15:31N 17°07' W 061°51'0 0.0
2017-Feb-19 14:28N 17°07' W 061°51'0 0.0
2017-Feb-19 13:31N 17°07' W 061°51'0 0.0
2017-Feb-19 12:31N 17°07' W 061°51'0 0.0
2017-Feb-19 11:34N 17°07' W 061°51'5 4.5
2017-Feb-19 10:33N 17°09' W 061°55'7 7.1
2017-Feb-19 09:33N 17°14' W 062°01'7 6.9
2017-Feb-19 08:33N 17°18' W 062°07'7 6.7
2017-Feb-19 07:33N 17°22' W 062°12'7 6.6
2017-Feb-19 06:33N 17°26' W 062°18'7 6.5
2017-Feb-19 05:33N 17°29' W 062°24'37 7.0
2017-Feb-19 00:17N 17°52' W 062°54'5 7.3
2017-Feb-18 23:34N 17°55' W 062°59'13 1.1
2017-Feb-18 11:22N 18°01' W 063°11'7 8.3
2017-Feb-18 10:33N 18°03' W 063°18'9 7.7
2017-Feb-18 09:27N 18°05' W 063°27'8 7.6
2017-Feb-18 08:25N 18°06' W 063°35'55 7.6
2017-Feb-18 01:06N 18°20' W 064°31'610.0
2017-Feb-18 00:29N 18°25' W 064°36'1 0.2
2017-Feb-17 20:28N 18°25' W 064°36'0 0.0
2017-Feb-17 12:15N 18°25' W 064°36'710.0
2017-Feb-17 11:33N 18°26' W 064°29'1414.2
2017-Feb-17 10:32N 18°34' W 064°42'1515.6
2017-Feb-17 09:33N 18°37' W 064°58'  

Dump ship's entire track history